<?xml version="1.0" encoding="UTF-8" standalone="no" ?>
<gpx xmlns="http://www.topografix.com/GPX/1/1" xmlns:xsi="http://www.w3.org/2001/XMLSchema-instance" xsi:schemaLocation="http://www.topografix.com/GPX/1/1 http://www.topografix.com/GPX/1/1/gpx.xsd" version="1.1" creator="VisuGPX - https://www.visugpx.com">
  <metadata>
    <name>Situation des chemins HRxx de la vallée du Cavu au 30/06/2026</name>
    <desc><![CDATA[Situation des chemins HRxx APB au 30/06/2026]]></desc>
  </metadata>
  <trk>
    <name><![CDATA[HR12 - Finicione RD]]></name>
    <desc><![CDATA[Chemin du Castedducciu en RD du Finicione depuis les alentours du pont de Figa (300m) jusqu'à l'embranchement avec la piste au-delà de Bocca di Castedducciu en terminant sur un tronçon commun avec le Finicione RG (HR11)]]></desc>
    <extensions>
      <line xmlns="http://www.topografix.com/GPX/gpx_style/0/2">
        <color>FF0000</color>
        <opacity>1</opacity>
        <width>4</width>
      </line>
    </extensions>
    <trkseg>
      <trkpt lat="41.7477" lon="9.26424">
        <ele>310.6</ele>
      </trkpt>
      <trkpt lat="41.74762" lon="9.26419">
        <ele>313</ele>
      </trkpt>
      <trkpt lat="41.74753" lon="9.26418">
        <ele>315.4</ele>
      </trkpt>
      <trkpt lat="41.74738" lon="9.26421">
        <ele>316.6</ele>
      </trkpt>
      <trkpt lat="41.74728" lon="9.26431">
        <ele>315.6</ele>
      </trkpt>
      <trkpt lat="41.74716" lon="9.26438">
        <ele>315.6</ele>
      </trkpt>
      <trkpt lat="41.74705" lon="9.26435">
        <ele>317.5</ele>
      </trkpt>
      <trkpt lat="41.74693" lon="9.26421">
        <ele>320.7</ele>
      </trkpt>
      <trkpt lat="41.74675" lon="9.26413">
        <ele>320.6</ele>
      </trkpt>
      <trkpt lat="41.74658" lon="9.26428">
        <ele>320.9</ele>
      </trkpt>
      <trkpt lat="41.74633" lon="9.26452">
        <ele>322.4</ele>
      </trkpt>
      <trkpt lat="41.74572" lon="9.26509">
        <ele>332</ele>
      </trkpt>
      <trkpt lat="41.74556" lon="9.26544">
        <ele>327.1</ele>
      </trkpt>
      <trkpt lat="41.74541" lon="9.26594">
        <ele>323.5</ele>
      </trkpt>
      <trkpt lat="41.74542" lon="9.26591">
        <ele>326.2</ele>
      </trkpt>
      <trkpt lat="41.74515" lon="9.26615">
        <ele>327.6</ele>
      </trkpt>
      <trkpt lat="41.74484" lon="9.26624">
        <ele>327</ele>
      </trkpt>
      <trkpt lat="41.74458" lon="9.26607">
        <ele>329.7</ele>
      </trkpt>
      <trkpt lat="41.74432" lon="9.2659">
        <ele>331.9</ele>
      </trkpt>
      <trkpt lat="41.74389" lon="9.26551">
        <ele>335.7</ele>
      </trkpt>
      <trkpt lat="41.74352" lon="9.26521">
        <ele>339</ele>
      </trkpt>
      <trkpt lat="41.74353" lon="9.26521">
        <ele>339.1</ele>
        <time>2023-01-29T10:46:26Z</time>
      </trkpt>
      <trkpt lat="41.74346" lon="9.26514">
        <ele>339.7</ele>
        <time>2023-01-29T10:46:35Z</time>
      </trkpt>
      <trkpt lat="41.74339" lon="9.26506">
        <ele>340</ele>
        <time>2023-01-29T10:46:43Z</time>
      </trkpt>
      <trkpt lat="41.74336" lon="9.265">
        <ele>342</ele>
        <time>2023-01-29T10:46:51Z</time>
      </trkpt>
      <trkpt lat="41.74332" lon="9.26496">
        <ele>344</ele>
        <time>2023-01-29T10:46:57Z</time>
      </trkpt>
      <trkpt lat="41.74328" lon="9.26494">
        <ele>344</ele>
        <time>2023-01-29T10:47:00Z</time>
      </trkpt>
      <trkpt lat="41.74312" lon="9.26483">
        <ele>345.2</ele>
        <time>2023-01-29T10:47:16Z</time>
      </trkpt>
      <trkpt lat="41.74303" lon="9.26479">
        <ele>345.9</ele>
        <time>2023-01-29T10:47:20Z</time>
      </trkpt>
      <trkpt lat="41.74282" lon="9.26473">
        <ele>347.4</ele>
        <time>2023-01-29T10:47:41Z</time>
      </trkpt>
      <trkpt lat="41.74282" lon="9.26473">
        <ele>347.1</ele>
        <time>2023-01-21T09:42:52Z</time>
      </trkpt>
      <trkpt lat="41.74279" lon="9.26473">
        <ele>346.3</ele>
      </trkpt>
      <trkpt lat="41.74278" lon="9.26465">
        <ele>352</ele>
        <time>2023-01-21T09:42:38Z</time>
      </trkpt>
      <trkpt lat="41.74272" lon="9.26463">
        <ele>354</ele>
        <time>2023-01-21T09:42:28Z</time>
      </trkpt>
      <trkpt lat="41.74271" lon="9.2646">
        <ele>358</ele>
        <time>2023-01-21T09:39:30Z</time>
      </trkpt>
      <trkpt lat="41.74274" lon="9.26456">
        <ele>354.9</ele>
        <time>2023-01-21T09:38:42Z</time>
      </trkpt>
      <trkpt lat="41.74268" lon="9.26451">
        <ele>356.8</ele>
        <time>2023-01-21T09:38:19Z</time>
      </trkpt>
      <trkpt lat="41.74264" lon="9.26442">
        <ele>367</ele>
        <time>2023-01-21T09:37:10Z</time>
      </trkpt>
      <trkpt lat="41.74259" lon="9.26439">
        <ele>368</ele>
        <time>2023-01-21T09:36:44Z</time>
      </trkpt>
      <trkpt lat="41.74255" lon="9.26437">
        <ele>371</ele>
        <time>2023-01-21T09:36:09Z</time>
      </trkpt>
      <trkpt lat="41.74249" lon="9.26433">
        <ele>372</ele>
        <time>2023-01-21T09:35:09Z</time>
      </trkpt>
      <trkpt lat="41.74245" lon="9.26432">
        <ele>373</ele>
        <time>2023-01-21T09:35:04Z</time>
      </trkpt>
      <trkpt lat="41.74238" lon="9.26427">
        <ele>375</ele>
        <time>2023-01-21T09:34:28Z</time>
      </trkpt>
      <trkpt lat="41.74235" lon="9.26423">
        <ele>376</ele>
        <time>2023-01-21T09:34:16Z</time>
      </trkpt>
      <trkpt lat="41.74233" lon="9.26418">
        <ele>377</ele>
        <time>2023-01-21T09:34:07Z</time>
      </trkpt>
      <trkpt lat="41.74226" lon="9.26413">
        <ele>379</ele>
        <time>2023-01-21T09:33:57Z</time>
      </trkpt>
      <trkpt lat="41.74214" lon="9.26397">
        <ele>383</ele>
        <time>2023-01-21T09:33:17Z</time>
      </trkpt>
      <trkpt lat="41.74209" lon="9.26392">
        <ele>370</ele>
        <time>2023-01-21T09:33:10Z</time>
      </trkpt>
      <trkpt lat="41.74205" lon="9.26388">
        <ele>372</ele>
        <time>2023-01-21T09:32:52Z</time>
      </trkpt>
      <trkpt lat="41.74199" lon="9.26376">
        <ele>376</ele>
        <time>2023-01-21T09:31:52Z</time>
      </trkpt>
      <trkpt lat="41.74192" lon="9.2637">
        <ele>380.5</ele>
      </trkpt>
      <trkpt lat="41.74192" lon="9.26368">
        <ele>381.1</ele>
      </trkpt>
      <trkpt lat="41.74178" lon="9.26346">
        <ele>386.6</ele>
      </trkpt>
      <trkpt lat="41.74173" lon="9.26333">
        <ele>390.3</ele>
      </trkpt>
      <trkpt lat="41.74167" lon="9.26319">
        <ele>393.1</ele>
      </trkpt>
      <trkpt lat="41.74162" lon="9.26301">
        <ele>396</ele>
      </trkpt>
      <trkpt lat="41.74169" lon="9.26288">
        <ele>402.1</ele>
      </trkpt>
      <trkpt lat="41.74189" lon="9.26286">
        <ele>406.1</ele>
      </trkpt>
      <trkpt lat="41.74186" lon="9.26263">
        <ele>411.4</ele>
      </trkpt>
      <trkpt lat="41.74192" lon="9.26262">
        <ele>413.9</ele>
      </trkpt>
      <trkpt lat="41.74188" lon="9.26236">
        <ele>420.4</ele>
      </trkpt>
      <trkpt lat="41.74201" lon="9.2624">
        <ele>424</ele>
      </trkpt>
      <trkpt lat="41.74196" lon="9.26223">
        <ele>427.4</ele>
      </trkpt>
      <trkpt lat="41.74169" lon="9.26185">
        <ele>434.3</ele>
      </trkpt>
      <trkpt lat="41.7415" lon="9.2616">
        <ele>441.2</ele>
      </trkpt>
      <trkpt lat="41.74131" lon="9.26137">
        <ele>445.7</ele>
      </trkpt>
      <trkpt lat="41.7414" lon="9.2613">
        <ele>449.5</ele>
      </trkpt>
      <trkpt lat="41.74134" lon="9.26115">
        <ele>454.2</ele>
      </trkpt>
      <trkpt lat="41.74143" lon="9.2611">
        <ele>457.6</ele>
      </trkpt>
      <trkpt lat="41.74134" lon="9.26098">
        <ele>459.2</ele>
      </trkpt>
      <trkpt lat="41.74134" lon="9.26079">
        <ele>463.4</ele>
      </trkpt>
      <trkpt lat="41.7413" lon="9.26065">
        <ele>464.6</ele>
      </trkpt>
      <trkpt lat="41.74129" lon="9.26049">
        <ele>466.1</ele>
      </trkpt>
      <trkpt lat="41.74128" lon="9.2604">
        <ele>466.7</ele>
      </trkpt>
      <trkpt lat="41.74126" lon="9.26035">
        <ele>466.6</ele>
      </trkpt>
      <trkpt lat="41.74127" lon="9.26022">
        <ele>467.9</ele>
      </trkpt>
      <trkpt lat="41.74129" lon="9.26018">
        <ele>468.7</ele>
      </trkpt>
      <trkpt lat="41.74129" lon="9.26012">
        <ele>469</ele>
      </trkpt>
      <trkpt lat="41.74133" lon="9.26005">
        <ele>470</ele>
      </trkpt>
      <trkpt lat="41.74143" lon="9.25996">
        <ele>472.3</ele>
      </trkpt>
      <trkpt lat="41.7415" lon="9.25987">
        <ele>474.5</ele>
      </trkpt>
      <trkpt lat="41.74153" lon="9.25983">
        <ele>475.2</ele>
      </trkpt>
      <trkpt lat="41.74155" lon="9.25976">
        <ele>475.9</ele>
      </trkpt>
      <trkpt lat="41.74156" lon="9.2597">
        <ele>476.2</ele>
      </trkpt>
      <trkpt lat="41.74153" lon="9.25959">
        <ele>477.2</ele>
      </trkpt>
      <trkpt lat="41.74156" lon="9.25951">
        <ele>478.4</ele>
      </trkpt>
      <trkpt lat="41.74159" lon="9.25934">
        <ele>480.8</ele>
      </trkpt>
      <trkpt lat="41.74166" lon="9.25929">
        <ele>481.6</ele>
      </trkpt>
      <trkpt lat="41.7417" lon="9.25924">
        <ele>482.7</ele>
      </trkpt>
      <trkpt lat="41.74172" lon="9.25915">
        <ele>483.8</ele>
      </trkpt>
      <trkpt lat="41.74174" lon="9.25907">
        <ele>484.8</ele>
      </trkpt>
      <trkpt lat="41.74177" lon="9.25901">
        <ele>485.8</ele>
      </trkpt>
      <trkpt lat="41.7418" lon="9.25885">
        <ele>487.7</ele>
      </trkpt>
      <trkpt lat="41.74182" lon="9.25864">
        <ele>488.9</ele>
      </trkpt>
      <trkpt lat="41.74182" lon="9.25855">
        <ele>489.1</ele>
      </trkpt>
      <trkpt lat="41.74171" lon="9.25806">
        <ele>493.6</ele>
      </trkpt>
      <trkpt lat="41.74164" lon="9.25775">
        <ele>500.4</ele>
      </trkpt>
      <trkpt lat="41.74126" lon="9.25786">
        <ele>508.9</ele>
      </trkpt>
      <trkpt lat="41.74129" lon="9.25761">
        <ele>511.1</ele>
      </trkpt>
      <trkpt lat="41.74117" lon="9.2576">
        <ele>517.8</ele>
      </trkpt>
      <trkpt lat="41.74125" lon="9.25729">
        <ele>522.9</ele>
      </trkpt>
      <trkpt lat="41.741" lon="9.25732">
        <ele>528.2</ele>
      </trkpt>
      <trkpt lat="41.74107" lon="9.25717">
        <ele>529.6</ele>
      </trkpt>
      <trkpt lat="41.74107" lon="9.25708">
        <ele>531.1</ele>
      </trkpt>
      <trkpt lat="41.74102" lon="9.25698">
        <ele>533.5</ele>
      </trkpt>
      <trkpt lat="41.741" lon="9.25686">
        <ele>534.3</ele>
      </trkpt>
      <trkpt lat="41.74096" lon="9.25677">
        <ele>527.4</ele>
      </trkpt>
      <trkpt lat="41.74092" lon="9.2566">
        <ele>528</ele>
      </trkpt>
      <trkpt lat="41.74083" lon="9.25648">
        <ele>528.1</ele>
      </trkpt>
      <trkpt lat="41.74046" lon="9.25606">
        <ele>561</ele>
      </trkpt>
      <trkpt lat="41.74028" lon="9.25583">
        <ele>559</ele>
      </trkpt>
      <trkpt lat="41.74019" lon="9.25569">
        <ele>531</ele>
      </trkpt>
      <trkpt lat="41.74013" lon="9.25562">
        <ele>529.2</ele>
      </trkpt>
      <trkpt lat="41.74008" lon="9.25559">
        <ele>561</ele>
      </trkpt>
      <trkpt lat="41.73979" lon="9.25545">
        <ele>536.8</ele>
      </trkpt>
      <trkpt lat="41.73965" lon="9.2551">
        <ele>540.9</ele>
      </trkpt>
      <trkpt lat="41.73958" lon="9.25497">
        <ele>543.9</ele>
      </trkpt>
      <trkpt lat="41.73952" lon="9.25486">
        <ele>546.7</ele>
      </trkpt>
      <trkpt lat="41.73942" lon="9.25468">
        <ele>549.6</ele>
      </trkpt>
      <trkpt lat="41.73925" lon="9.25462">
        <ele>549.1</ele>
      </trkpt>
      <trkpt lat="41.73908" lon="9.25439">
        <ele>555.4</ele>
      </trkpt>
      <trkpt lat="41.73896" lon="9.25416">
        <ele>581</ele>
      </trkpt>
      <trkpt lat="41.7388" lon="9.25399">
        <ele>549.3</ele>
      </trkpt>
      <trkpt lat="41.73865" lon="9.254">
        <ele>555</ele>
      </trkpt>
      <trkpt lat="41.73848" lon="9.25394">
        <ele>564.5</ele>
      </trkpt>
      <trkpt lat="41.73822" lon="9.25368">
        <ele>574</ele>
      </trkpt>
      <trkpt lat="41.73823" lon="9.25334">
        <ele>581</ele>
      </trkpt>
      <trkpt lat="41.73828" lon="9.25317">
        <ele>558.9</ele>
      </trkpt>
      <trkpt lat="41.73827" lon="9.25304">
        <ele>562</ele>
      </trkpt>
      <trkpt lat="41.7383" lon="9.25292">
        <ele>561.8</ele>
      </trkpt>
      <trkpt lat="41.7383" lon="9.25282">
        <ele>563.4</ele>
      </trkpt>
      <trkpt lat="41.73828" lon="9.25254">
        <ele>565.8</ele>
      </trkpt>
      <trkpt lat="41.73825" lon="9.25252">
        <ele>567.7</ele>
      </trkpt>
      <trkpt lat="41.73826" lon="9.25248">
        <ele>567.7</ele>
      </trkpt>
      <trkpt lat="41.73825" lon="9.25232">
        <ele>557.3</ele>
      </trkpt>
      <trkpt lat="41.73813" lon="9.25217">
        <ele>575.2</ele>
      </trkpt>
      <trkpt lat="41.73801" lon="9.25223">
        <ele>580</ele>
      </trkpt>
      <trkpt lat="41.73795" lon="9.25218">
        <ele>579</ele>
      </trkpt>
      <trkpt lat="41.73797" lon="9.25207">
        <ele>572.9</ele>
      </trkpt>
      <trkpt lat="41.73795" lon="9.25202">
        <ele>556.2</ele>
      </trkpt>
      <trkpt lat="41.73765" lon="9.25195">
        <ele>560.1</ele>
      </trkpt>
      <trkpt lat="41.73718" lon="9.25196">
        <ele>573</ele>
      </trkpt>
      <trkpt lat="41.7369" lon="9.25197">
        <ele>578</ele>
      </trkpt>
      <trkpt lat="41.73659" lon="9.25171">
        <ele>576</ele>
      </trkpt>
      <trkpt lat="41.73635" lon="9.2515">
        <ele>570</ele>
      </trkpt>
      <trkpt lat="41.73604" lon="9.2514">
        <ele>569</ele>
      </trkpt>
      <trkpt lat="41.73575" lon="9.25128">
        <ele>563</ele>
      </trkpt>
      <trkpt lat="41.73529" lon="9.25126">
        <ele>559</ele>
      </trkpt>
      <trkpt lat="41.73506" lon="9.25113">
        <ele>558</ele>
      </trkpt>
      <trkpt lat="41.73494" lon="9.25104">
        <ele>557</ele>
      </trkpt>
      <trkpt lat="41.73488" lon="9.25058">
        <ele>555</ele>
      </trkpt>
      <trkpt lat="41.73522" lon="9.24977">
        <ele>551</ele>
      </trkpt>
      <trkpt lat="41.73549" lon="9.24908">
        <ele>553</ele>
      </trkpt>
      <trkpt lat="41.73537" lon="9.24871">
        <ele>566</ele>
      </trkpt>
      <trkpt lat="41.73539" lon="9.24819">
        <ele>570</ele>
      </trkpt>
      <trkpt lat="41.73576" lon="9.24747">
        <ele>556</ele>
      </trkpt>
      <trkpt lat="41.73598" lon="9.24664">
        <ele>550.5</ele>
      </trkpt>
      <trkpt lat="41.73605" lon="9.24638">
        <ele>567</ele>
      </trkpt>
      <trkpt lat="41.73589" lon="9.24647">
        <ele>566</ele>
      </trkpt>
      <trkpt lat="41.7358" lon="9.24639">
        <ele>568</ele>
      </trkpt>
      <trkpt lat="41.73551" lon="9.24633">
        <ele>570</ele>
      </trkpt>
      <trkpt lat="41.73514" lon="9.24626">
        <ele>572</ele>
      </trkpt>
      <trkpt lat="41.73491" lon="9.24619">
        <ele>571</ele>
      </trkpt>
      <trkpt lat="41.7346" lon="9.2461">
        <ele>555.6</ele>
      </trkpt>
      <trkpt lat="41.73437" lon="9.24607">
        <ele>573</ele>
      </trkpt>
      <trkpt lat="41.73431" lon="9.24591">
        <ele>575</ele>
      </trkpt>
      <trkpt lat="41.73434" lon="9.24578">
        <ele>560</ele>
      </trkpt>
      <trkpt lat="41.73433" lon="9.24579">
        <ele>577</ele>
      </trkpt>
      <trkpt lat="41.7348" lon="9.24541">
        <ele>573</ele>
      </trkpt>
      <trkpt lat="41.73512" lon="9.24511">
        <ele>576.4</ele>
      </trkpt>
      <trkpt lat="41.7353" lon="9.24475">
        <ele>588</ele>
      </trkpt>
      <trkpt lat="41.73564" lon="9.24447">
        <ele>586</ele>
      </trkpt>
      <trkpt lat="41.73577" lon="9.2442">
        <ele>584</ele>
      </trkpt>
      <trkpt lat="41.73634" lon="9.24352">
        <ele>598</ele>
      </trkpt>
      <trkpt lat="41.73645" lon="9.24319">
        <ele>609</ele>
      </trkpt>
      <trkpt lat="41.73699" lon="9.24313">
        <ele>604.8</ele>
      </trkpt>
      <trkpt lat="41.73729" lon="9.24309">
        <ele>608</ele>
      </trkpt>
      <trkpt lat="41.73753" lon="9.24284">
        <ele>605.4</ele>
      </trkpt>
      <trkpt lat="41.73774" lon="9.24262">
        <ele>627</ele>
      </trkpt>
      <trkpt lat="41.73814" lon="9.24243">
        <ele>624.3</ele>
      </trkpt>
      <trkpt lat="41.73836" lon="9.24246">
        <ele>634</ele>
      </trkpt>
      <trkpt lat="41.73893" lon="9.24233">
        <ele>640.4</ele>
      </trkpt>
      <trkpt lat="41.73914" lon="9.24226">
        <ele>646.9</ele>
      </trkpt>
      <trkpt lat="41.73927" lon="9.24179">
        <ele>650.8</ele>
      </trkpt>
      <trkpt lat="41.7393" lon="9.24154">
        <ele>648</ele>
      </trkpt>
      <trkpt lat="41.73912" lon="9.24119">
        <ele>654</ele>
      </trkpt>
      <trkpt lat="41.73908" lon="9.24044">
        <ele>650</ele>
      </trkpt>
      <trkpt lat="41.73898" lon="9.24024">
        <ele>656</ele>
      </trkpt>
      <trkpt lat="41.73893" lon="9.23985">
        <ele>651.7</ele>
      </trkpt>
      <trkpt lat="41.73889" lon="9.23957">
        <ele>660.9</ele>
      </trkpt>
      <trkpt lat="41.73927" lon="9.23935">
        <ele>677</ele>
      </trkpt>
      <trkpt lat="41.73965" lon="9.23916">
        <ele>679.2</ele>
      </trkpt>
      <trkpt lat="41.73973" lon="9.23878">
        <ele>688.9</ele>
      </trkpt>
      <trkpt lat="41.73984" lon="9.23825">
        <ele>701.3</ele>
      </trkpt>
      <trkpt lat="41.73998" lon="9.2381">
        <ele>709</ele>
      </trkpt>
      <trkpt lat="41.74034" lon="9.23773">
        <ele>708</ele>
      </trkpt>
      <trkpt lat="41.74008" lon="9.23757">
        <ele>720.4</ele>
      </trkpt>
      <trkpt lat="41.74019" lon="9.2368">
        <ele>731</ele>
      </trkpt>
      <trkpt lat="41.74023" lon="9.23644">
        <ele>736.2</ele>
      </trkpt>
      <trkpt lat="41.73999" lon="9.23582">
        <ele>747.3</ele>
      </trkpt>
      <trkpt lat="41.73983" lon="9.23543">
        <ele>751</ele>
      </trkpt>
      <trkpt lat="41.73963" lon="9.23533">
        <ele>754.1</ele>
      </trkpt>
      <trkpt lat="41.73934" lon="9.23516">
        <ele>754.4</ele>
      </trkpt>
      <trkpt lat="41.7391" lon="9.23503">
        <ele>753.6</ele>
      </trkpt>
      <trkpt lat="41.73892" lon="9.23492">
        <ele>752</ele>
      </trkpt>
      <trkpt lat="41.73877" lon="9.23495">
        <ele>760</ele>
      </trkpt>
      <trkpt lat="41.7387" lon="9.23485">
        <ele>751.6</ele>
      </trkpt>
      <trkpt lat="41.73863" lon="9.23478">
        <ele>756</ele>
      </trkpt>
      <trkpt lat="41.73847" lon="9.23473">
        <ele>749.6</ele>
      </trkpt>
      <trkpt lat="41.73826" lon="9.23467">
        <ele>750.3</ele>
      </trkpt>
      <trkpt lat="41.73808" lon="9.23454">
        <ele>756</ele>
      </trkpt>
      <trkpt lat="41.73793" lon="9.23446">
        <ele>748.6</ele>
      </trkpt>
      <trkpt lat="41.7378" lon="9.23438">
        <ele>754</ele>
      </trkpt>
      <trkpt lat="41.73777" lon="9.2342">
        <ele>749</ele>
      </trkpt>
      <trkpt lat="41.73772" lon="9.23393">
        <ele>749.2</ele>
      </trkpt>
      <trkpt lat="41.73764" lon="9.23384">
        <ele>751.6</ele>
      </trkpt>
      <trkpt lat="41.73751" lon="9.23376">
        <ele>736.6</ele>
      </trkpt>
      <trkpt lat="41.73743" lon="9.23371">
        <ele>739.8</ele>
      </trkpt>
      <trkpt lat="41.73762" lon="9.23355">
        <ele>752</ele>
      </trkpt>
      <trkpt lat="41.73794" lon="9.23326">
        <ele>759.1</ele>
      </trkpt>
      <trkpt lat="41.73814" lon="9.23307">
        <ele>763.6</ele>
      </trkpt>
      <trkpt lat="41.73826" lon="9.23296">
        <ele>765</ele>
      </trkpt>
      <trkpt lat="41.73837" lon="9.23287">
        <ele>764</ele>
      </trkpt>
      <trkpt lat="41.73841" lon="9.23276">
        <ele>766</ele>
      </trkpt>
      <trkpt lat="41.73846" lon="9.2326">
        <ele>767</ele>
      </trkpt>
      <trkpt lat="41.73845" lon="9.23234">
        <ele>766.9</ele>
      </trkpt>
      <trkpt lat="41.73845" lon="9.2322">
        <ele>767.2</ele>
      </trkpt>
      <trkpt lat="41.73846" lon="9.23206">
        <ele>768.2</ele>
      </trkpt>
      <trkpt lat="41.73846" lon="9.23182">
        <ele>779</ele>
      </trkpt>
      <trkpt lat="41.73848" lon="9.23156">
        <ele>771.6</ele>
      </trkpt>
      <trkpt lat="41.73848" lon="9.23138">
        <ele>773.4</ele>
      </trkpt>
      <trkpt lat="41.73847" lon="9.23113">
        <ele>777.1</ele>
      </trkpt>
      <trkpt lat="41.73849" lon="9.23082">
        <ele>779.3</ele>
      </trkpt>
      <trkpt lat="41.73851" lon="9.23059">
        <ele>795</ele>
      </trkpt>
      <trkpt lat="41.73859" lon="9.23027">
        <ele>797</ele>
      </trkpt>
      <trkpt lat="41.73862" lon="9.23008">
        <ele>800</ele>
      </trkpt>
      <trkpt lat="41.73869" lon="9.22988">
        <ele>801</ele>
      </trkpt>
      <trkpt lat="41.73876" lon="9.22959">
        <ele>805</ele>
      </trkpt>
      <trkpt lat="41.73884" lon="9.22945">
        <ele>804</ele>
      </trkpt>
      <trkpt lat="41.73892" lon="9.22924">
        <ele>805</ele>
      </trkpt>
      <trkpt lat="41.73894" lon="9.22903">
        <ele>809</ele>
      </trkpt>
      <trkpt lat="41.739" lon="9.22888">
        <ele>809</ele>
      </trkpt>
      <trkpt lat="41.73907" lon="9.22876">
        <ele>810</ele>
      </trkpt>
      <trkpt lat="41.73913" lon="9.22873">
        <ele>795.1</ele>
      </trkpt>
      <trkpt lat="41.73913" lon="9.22854">
        <ele>799.4</ele>
      </trkpt>
      <trkpt lat="41.73912" lon="9.22834">
        <ele>802.5</ele>
      </trkpt>
      <trkpt lat="41.73921" lon="9.22833">
        <ele>817</ele>
      </trkpt>
      <trkpt lat="41.73927" lon="9.22836">
        <ele>817</ele>
      </trkpt>
      <trkpt lat="41.73931" lon="9.22845">
        <ele>815</ele>
      </trkpt>
      <trkpt lat="41.73943" lon="9.22843">
        <ele>816</ele>
      </trkpt>
      <trkpt lat="41.73958" lon="9.22854">
        <ele>816</ele>
      </trkpt>
      <trkpt lat="41.73962" lon="9.22843">
        <ele>812.4</ele>
      </trkpt>
      <trkpt lat="41.73965" lon="9.22846">
        <ele>812.4</ele>
      </trkpt>
      <trkpt lat="41.7396" lon="9.22833">
        <ele>824</ele>
      </trkpt>
      <trkpt lat="41.73957" lon="9.22822">
        <ele>827</ele>
      </trkpt>
      <trkpt lat="41.73949" lon="9.22802">
        <ele>831</ele>
      </trkpt>
      <trkpt lat="41.73944" lon="9.22787">
        <ele>824.2</ele>
      </trkpt>
      <trkpt lat="41.73941" lon="9.2278">
        <ele>824.1</ele>
      </trkpt>
      <trkpt lat="41.73937" lon="9.2277">
        <ele>825.3</ele>
      </trkpt>
      <trkpt lat="41.73931" lon="9.22753">
        <ele>828</ele>
      </trkpt>
      <trkpt lat="41.73919" lon="9.22718">
        <ele>835.8</ele>
      </trkpt>
      <trkpt lat="41.73912" lon="9.227">
        <ele>839.9</ele>
      </trkpt>
      <trkpt lat="41.73905" lon="9.2268">
        <ele>844.5</ele>
      </trkpt>
      <trkpt lat="41.73899" lon="9.22664">
        <ele>849.1</ele>
      </trkpt>
      <trkpt lat="41.73889" lon="9.22637">
        <ele>856.7</ele>
      </trkpt>
      <trkpt lat="41.7388" lon="9.22611">
        <ele>862.6</ele>
      </trkpt>
      <trkpt lat="41.7388" lon="9.226">
        <ele>867.7</ele>
      </trkpt>
      <trkpt lat="41.7388" lon="9.22593">
        <ele>870.9</ele>
      </trkpt>
      <trkpt lat="41.7388" lon="9.22583">
        <ele>875.7</ele>
      </trkpt>
      <trkpt lat="41.73865" lon="9.22581">
        <ele>869.9</ele>
      </trkpt>
      <trkpt lat="41.73868" lon="9.22574">
        <ele>875.4</ele>
      </trkpt>
      <trkpt lat="41.73859" lon="9.22556">
        <ele>883</ele>
      </trkpt>
      <trkpt lat="41.73845" lon="9.22532">
        <ele>888.9</ele>
      </trkpt>
      <trkpt lat="41.73843" lon="9.22505">
        <ele>894.5</ele>
      </trkpt>
      <trkpt lat="41.73841" lon="9.22492">
        <ele>897.1</ele>
      </trkpt>
      <trkpt lat="41.73833" lon="9.22484">
        <ele>895.1</ele>
      </trkpt>
      <trkpt lat="41.73826" lon="9.2248">
        <ele>893.7</ele>
      </trkpt>
      <trkpt lat="41.73821" lon="9.22469">
        <ele>894.9</ele>
      </trkpt>
      <trkpt lat="41.73831" lon="9.22448">
        <ele>902.7</ele>
      </trkpt>
      <trkpt lat="41.73826" lon="9.22443">
        <ele>903.5</ele>
      </trkpt>
      <trkpt lat="41.73814" lon="9.22438">
        <ele>903.8</ele>
      </trkpt>
      <trkpt lat="41.73806" lon="9.22441">
        <ele>901.7</ele>
      </trkpt>
      <trkpt lat="41.73809" lon="9.22423">
        <ele>909.4</ele>
      </trkpt>
      <trkpt lat="41.73794" lon="9.22413">
        <ele>913</ele>
      </trkpt>
      <trkpt lat="41.73792" lon="9.22402">
        <ele>917.6</ele>
      </trkpt>
      <trkpt lat="41.73785" lon="9.22399">
        <ele>918.2</ele>
      </trkpt>
      <trkpt lat="41.73788" lon="9.22387">
        <ele>929</ele>
      </trkpt>
      <trkpt lat="41.73769" lon="9.22387">
        <ele>924</ele>
      </trkpt>
      <trkpt lat="41.73756" lon="9.22386">
        <ele>926.4</ele>
      </trkpt>
      <trkpt lat="41.73749" lon="9.22386">
        <ele>927.3</ele>
      </trkpt>
      <trkpt lat="41.73744" lon="9.22367">
        <ele>936.5</ele>
      </trkpt>
      <trkpt lat="41.73741" lon="9.22352">
        <ele>942.9</ele>
      </trkpt>
      <trkpt lat="41.73738" lon="9.22341">
        <ele>949</ele>
      </trkpt>
      <trkpt lat="41.73731" lon="9.22335">
        <ele>948.7</ele>
      </trkpt>
      <trkpt lat="41.73725" lon="9.22328">
        <ele>951.8</ele>
      </trkpt>
      <trkpt lat="41.73718" lon="9.22321">
        <ele>955.3</ele>
      </trkpt>
      <trkpt lat="41.73713" lon="9.22316">
        <ele>957.9</ele>
      </trkpt>
      <trkpt lat="41.73716" lon="9.22304">
        <ele>963.9</ele>
      </trkpt>
      <trkpt lat="41.73693" lon="9.22288">
        <ele>969.7</ele>
      </trkpt>
      <trkpt lat="41.73673" lon="9.22275">
        <ele>971.3</ele>
      </trkpt>
      <trkpt lat="41.73676" lon="9.22244">
        <ele>982.8</ele>
      </trkpt>
      <trkpt lat="41.73658" lon="9.22241">
        <ele>984</ele>
      </trkpt>
      <trkpt lat="41.73651" lon="9.22235">
        <ele>986.9</ele>
      </trkpt>
      <trkpt lat="41.73652" lon="9.22214">
        <ele>1002</ele>
      </trkpt>
      <trkpt lat="41.73646" lon="9.22201">
        <ele>1008</ele>
      </trkpt>
      <trkpt lat="41.73637" lon="9.22203">
        <ele>999</ele>
      </trkpt>
      <trkpt lat="41.73631" lon="9.22205">
        <ele>999.9</ele>
      </trkpt>
      <trkpt lat="41.73622" lon="9.22214">
        <ele>999.8</ele>
      </trkpt>
      <trkpt lat="41.73615" lon="9.22209">
        <ele>1003.7</ele>
      </trkpt>
      <trkpt lat="41.7361" lon="9.22197">
        <ele>1009.6</ele>
      </trkpt>
      <trkpt lat="41.73597" lon="9.22211">
        <ele>1008.7</ele>
      </trkpt>
      <trkpt lat="41.73595" lon="9.22224">
        <ele>1007</ele>
      </trkpt>
      <trkpt lat="41.73588" lon="9.22224">
        <ele>1007.1</ele>
      </trkpt>
      <trkpt lat="41.73586" lon="9.22197">
        <ele>1021</ele>
      </trkpt>
      <trkpt lat="41.73585" lon="9.22184">
        <ele>1022.3</ele>
      </trkpt>
      <trkpt lat="41.73584" lon="9.22172">
        <ele>1027.1</ele>
      </trkpt>
      <trkpt lat="41.73583" lon="9.22162">
        <ele>1031</ele>
      </trkpt>
      <trkpt lat="41.73558" lon="9.22141">
        <ele>1044.8</ele>
      </trkpt>
      <trkpt lat="41.73542" lon="9.22156">
        <ele>1049</ele>
      </trkpt>
      <trkpt lat="41.73534" lon="9.22161">
        <ele>1049</ele>
      </trkpt>
      <trkpt lat="41.73523" lon="9.22163">
        <ele>1052</ele>
      </trkpt>
      <trkpt lat="41.73513" lon="9.22157">
        <ele>1055.3</ele>
      </trkpt>
      <trkpt lat="41.73494" lon="9.22146">
        <ele>1064</ele>
      </trkpt>
      <trkpt lat="41.7348" lon="9.2214">
        <ele>1072</ele>
      </trkpt>
      <trkpt lat="41.73469" lon="9.22134">
        <ele>1075.6</ele>
      </trkpt>
      <trkpt lat="41.73453" lon="9.22126">
        <ele>1081.9</ele>
      </trkpt>
      <trkpt lat="41.73434" lon="9.2214">
        <ele>1081.6</ele>
      </trkpt>
      <trkpt lat="41.73417" lon="9.22146">
        <ele>1090</ele>
      </trkpt>
      <trkpt lat="41.73409" lon="9.22149">
        <ele>1093</ele>
      </trkpt>
      <trkpt lat="41.73398" lon="9.22152">
        <ele>1091.7</ele>
      </trkpt>
      <trkpt lat="41.73387" lon="9.22157">
        <ele>1096.6</ele>
      </trkpt>
      <trkpt lat="41.73371" lon="9.22155">
        <ele>1100.4</ele>
      </trkpt>
      <trkpt lat="41.73362" lon="9.2214">
        <ele>1101</ele>
      </trkpt>
      <trkpt lat="41.73354" lon="9.22137">
        <ele>1103.8</ele>
      </trkpt>
      <trkpt lat="41.73343" lon="9.22132">
        <ele>1107.9</ele>
      </trkpt>
      <trkpt lat="41.73334" lon="9.22116">
        <ele>1110.2</ele>
      </trkpt>
      <trkpt lat="41.73315" lon="9.2211">
        <ele>1116.1</ele>
      </trkpt>
      <trkpt lat="41.73293" lon="9.22103">
        <ele>1133</ele>
      </trkpt>
      <trkpt lat="41.73284" lon="9.22102">
        <ele>1126.3</ele>
      </trkpt>
      <trkpt lat="41.73264" lon="9.22079">
        <ele>1142</ele>
      </trkpt>
      <trkpt lat="41.73238" lon="9.22079">
        <ele>1137.1</ele>
      </trkpt>
      <trkpt lat="41.73227" lon="9.22069">
        <ele>1138.7</ele>
      </trkpt>
      <trkpt lat="41.73204" lon="9.22051">
        <ele>1139.5</ele>
      </trkpt>
      <trkpt lat="41.73179" lon="9.22035">
        <ele>1137.5</ele>
      </trkpt>
      <trkpt lat="41.73154" lon="9.22019">
        <ele>1133.5</ele>
      </trkpt>
      <trkpt lat="41.7311" lon="9.22023">
        <ele>1126.3</ele>
      </trkpt>
      <trkpt lat="41.73074" lon="9.22025">
        <ele>1125.7</ele>
      </trkpt>
      <trkpt lat="41.73007" lon="9.22054">
        <ele>1139.8</ele>
      </trkpt>
      <trkpt lat="41.7296" lon="9.22023">
        <ele>1145.9</ele>
      </trkpt>
    </trkseg>
  </trk>
</gpx>